createdAt,value
2023-07-18T00:01:15.741Z,19.37
2023-07-18T00:06:26.369Z,19.34
2023-07-18T00:11:32.599Z,19.31
2023-07-18T00:16:38.873Z,19.28
2023-07-18T00:21:45.149Z,19.25
2023-07-18T00:26:50.623Z,19.22
2023-07-18T00:31:56.253Z,19.16
2023-07-18T00:37:03.469Z,19.12
2023-07-18T00:42:10.346Z,19.08
2023-07-18T00:47:17.063Z,19.03
2023-07-18T00:52:23.635Z,18.98
2023-07-18T00:57:30.103Z,18.94
2023-07-18T01:02:36.202Z,18.90
2023-07-18T01:07:44.474Z,18.87
2023-07-18T01:12:50.388Z,18.83
2023-07-18T01:17:56.674Z,18.81
2023-07-18T01:23:05.660Z,18.78
2023-07-18T01:28:13.840Z,18.74
2023-07-18T01:33:19.935Z,18.71
2023-07-18T01:38:31.241Z,18.69
2023-07-18T01:43:37.670Z,18.67
2023-07-18T01:48:44.079Z,18.64
2023-07-18T01:53:51.081Z,18.62
2023-07-18T01:58:57.871Z,18.58
2023-07-18T02:04:07.164Z,18.54
2023-07-18T02:09:14.286Z,18.48
2023-07-18T02:14:21.725Z,18.42
2023-07-18T02:19:27.260Z,18.36
2023-07-18T02:24:32.943Z,18.30
2023-07-18T02:29:39.572Z,18.23
2023-07-18T02:34:46.247Z,18.15
2023-07-18T02:39:52.807Z,18.09
2023-07-18T02:44:59.992Z,18.01
2023-07-18T02:50:06.727Z,17.95
2023-07-18T02:55:13.342Z,17.86
2023-07-18T03:00:27.594Z,17.79
2023-07-18T03:05:34.742Z,17.71
2023-07-18T03:10:43.515Z,17.64
2023-07-18T03:15:49.097Z,17.56
2023-07-18T03:20:55.567Z,17.50
2023-07-18T03:26:02.792Z,17.42
2023-07-18T03:31:09.485Z,17.36
2023-07-18T03:38:33.397Z,17.30
2023-07-18T03:44:09.983Z,17.24
2023-07-18T03:49:16.321Z,17.22
2023-07-18T03:54:22.844Z,17.18
2023-07-18T03:59:29.969Z,17.16
2023-07-18T04:04:36.332Z,17.16
2023-07-18T04:09:42.787Z,17.16
2023-07-18T04:14:49.811Z,17.16
2023-07-18T04:20:00.722Z,17.16
2023-07-18T04:25:08.075Z,17.16
2023-07-18T04:30:15.497Z,17.16
2023-07-18T04:35:21.535Z,17.16
2023-07-18T04:40:27.073Z,17.19
2023-07-18T04:45:33.362Z,17.23
2023-07-18T04:50:40.144Z,17.29
2023-07-18T04:55:47.137Z,17.35
2023-07-18T05:00:55.786Z,17.43
2023-07-18T05:06:02.215Z,17.51
2023-07-18T05:11:07.684Z,17.61
2023-07-18T05:16:13.761Z,17.71
2023-07-18T05:21:19.845Z,17.80
2023-07-18T05:26:26.331Z,17.88
2023-07-18T05:31:32.277Z,18.00
2023-07-18T05:36:37.936Z,18.15
2023-07-18T05:41:43.664Z,18.30
2023-07-18T05:46:49.482Z,18.45
2023-07-18T05:51:55.196Z,18.62
2023-07-18T05:57:01.157Z,18.79
2023-07-18T06:02:07.017Z,18.95
2023-07-18T06:07:13.653Z,19.10
2023-07-18T06:12:19.252Z,19.20
2023-07-18T06:17:25.377Z,19.27
2023-07-18T06:22:32.179Z,19.33
2023-07-18T06:27:37.911Z,19.37
2023-07-18T06:32:44.375Z,19.42
2023-07-18T06:37:51.476Z,19.44
2023-07-18T06:42:58.606Z,19.48
2023-07-18T06:48:04.739Z,19.52
2023-07-18T06:53:11.382Z,19.57
2023-07-18T06:58:18.169Z,19.61
2023-07-18T07:03:24.576Z,19.64
2023-07-18T07:08:31.148Z,19.68
2023-07-18T07:13:38.403Z,19.71
2023-07-18T07:18:45.686Z,19.74
2023-07-18T07:23:53.723Z,19.78
2023-07-18T07:29:00.794Z,19.82
2023-07-18T07:34:06.874Z,19.85
2023-07-18T07:39:17.264Z,19.88
2023-07-18T07:44:23.012Z,19.91
2023-07-18T07:49:28.827Z,19.95
2023-07-18T07:54:34.824Z,20.00
2023-07-18T07:59:40.548Z,20.05
2023-07-18T08:04:47.135Z,20.10
2023-07-18T08:09:53.459Z,20.15
2023-07-18T08:15:00.530Z,20.20
2023-07-18T08:20:07.957Z,20.29
2023-07-18T08:25:13.767Z,20.41
2023-07-18T08:30:21.453Z,20.52
2023-07-18T08:35:27.772Z,20.65
2023-07-18T08:40:34.473Z,20.79
2023-07-18T08:45:40.627Z,20.88
2023-07-18T08:50:47.237Z,20.91
2023-07-18T08:55:53.977Z,20.93
2023-07-18T09:01:01.246Z,20.95
2023-07-18T09:06:19.200Z,20.96
2023-07-18T09:11:26.171Z,20.99
2023-07-18T09:16:31.952Z,21.03
2023-07-18T09:21:38.810Z,21.08
2023-07-18T09:26:45.432Z,21.16
2023-07-18T09:31:53.125Z,21.23
2023-07-18T09:37:00.362Z,21.27
2023-07-18T09:42:10.762Z,21.30
2023-07-18T09:47:19.555Z,21.34
2023-07-18T09:52:29.894Z,21.36
2023-07-18T09:57:37.377Z,21.36
2023-07-18T10:02:44.159Z,21.37
2023-07-18T10:07:51.305Z,21.38
2023-07-18T10:13:04.548Z,21.41
2023-07-18T10:18:24.261Z,21.44
2023-07-18T10:23:45.532Z,21.49
2023-07-18T10:28:51.929Z,21.56
2023-07-18T10:34:11.711Z,21.63
2023-07-18T10:39:18.210Z,21.74
2023-07-18T10:44:24.575Z,21.85
2023-07-18T10:49:31.537Z,21.96
2023-07-18T10:54:38.303Z,22.07
2023-07-18T10:59:46.495Z,22.18
2023-07-18T11:04:53.812Z,22.29
2023-07-18T11:09:59.895Z,22.37
2023-07-18T11:15:07.740Z,22.43
2023-07-18T11:20:15.339Z,22.50
2023-07-18T11:25:22.044Z,22.56
2023-07-18T11:30:27.707Z,22.63
2023-07-18T11:35:33.361Z,22.68
2023-07-18T11:40:40.043Z,22.74
2023-07-18T11:45:48.041Z,22.78
2023-07-18T11:50:54.964Z,22.81
2023-07-18T11:56:01.170Z,22.89
2023-07-18T12:01:07.283Z,22.98
2023-07-18T12:06:13.111Z,23.05
2023-07-18T12:11:19.881Z,23.10
2023-07-18T12:16:26.537Z,23.15
2023-07-18T12:21:32.032Z,23.18
2023-07-18T12:26:38.936Z,23.20
2023-07-18T12:31:51.192Z,23.22
2023-07-18T12:36:57.942Z,23.24
2023-07-18T12:42:04.359Z,23.25
2023-07-18T12:47:11.423Z,23.27
2023-07-18T12:52:17.800Z,23.29
2023-07-18T12:57:24.226Z,23.31
2023-07-18T13:02:30.611Z,23.32
2023-07-18T13:07:38.166Z,23.33
2023-07-18T13:12:45.211Z,23.34
2023-07-18T13:17:50.795Z,23.36
2023-07-18T13:22:57.450Z,23.38
2023-07-18T13:28:04.205Z,23.42
2023-07-18T13:33:10.680Z,23.44
2023-07-18T13:38:17.052Z,23.44
2023-07-18T13:43:23.036Z,23.43
2023-07-18T13:48:28.658Z,23.41
2023-07-18T13:53:35.131Z,23.35
2023-07-18T13:58:41.438Z,23.23
2023-07-18T14:03:47.348Z,23.03
2023-07-18T14:08:54.327Z,22.80
2023-07-18T14:14:01.142Z,22.57
2023-07-18T14:19:07.975Z,22.34
2023-07-18T14:24:15.037Z,22.14
2023-07-18T14:29:21.992Z,21.96
2023-07-18T14:34:28.374Z,21.81
2023-07-18T14:39:37.279Z,21.71
2023-07-18T14:44:43.553Z,21.63
2023-07-18T14:49:49.616Z,21.60
2023-07-18T14:54:58.673Z,21.58
2023-07-18T15:00:06.707Z,21.57
2023-07-18T15:05:13.315Z,21.57
2023-07-18T15:10:20.113Z,21.59
2023-07-18T15:15:26.382Z,21.60
2023-07-18T15:20:32.718Z,21.64
2023-07-18T15:25:39.842Z,21.67
2023-07-18T15:30:47.108Z,21.71
2023-07-18T15:35:52.736Z,21.76
2023-07-18T15:40:58.892Z,21.82
2023-07-18T15:46:06.065Z,21.88
2023-07-18T15:51:13.363Z,21.93
2023-07-18T15:56:20.319Z,21.98
2023-07-18T16:01:27.374Z,22.03
2023-07-18T16:06:34.587Z,22.09
2023-07-18T16:11:41.418Z,22.14
2023-07-18T16:16:47.768Z,22.16
2023-07-18T16:21:54.828Z,22.17
2023-07-18T16:27:02.116Z,22.18
2023-07-18T16:32:10.414Z,22.17
2023-07-18T16:37:16.709Z,22.16
2023-07-18T16:42:24.694Z,22.14
2023-07-18T16:47:31.756Z,22.11
2023-07-18T16:52:38.878Z,22.08
2023-07-18T16:57:45.097Z,22.05
2023-07-18T17:02:51.866Z,22.01
2023-07-18T17:07:58.145Z,21.96
2023-07-18T17:13:04.611Z,21.91
2023-07-18T17:18:10.942Z,21.86
2023-07-18T17:23:16.604Z,21.80
2023-07-18T17:28:22.931Z,21.73
2023-07-18T17:33:29.837Z,21.67
2023-07-18T17:38:36.136Z,21.61
2023-07-18T17:43:43.250Z,21.55
2023-07-18T17:48:49.928Z,21.48
2023-07-18T17:53:56.636Z,21.43
2023-07-18T17:59:02.494Z,21.37
2023-07-18T18:04:09.186Z,21.32
2023-07-18T18:09:15.504Z,21.26
2023-07-18T18:14:21.718Z,21.21
2023-07-18T18:19:28.046Z,21.16
2023-07-18T18:24:33.885Z,21.11
2023-07-18T18:29:40.392Z,21.05
2023-07-18T18:35:00.967Z,20.99
2023-07-18T18:40:13.309Z,20.95
2023-07-18T18:45:19.254Z,20.90
2023-07-18T18:50:25.013Z,20.85
2023-07-18T18:55:33.769Z,20.80
2023-07-18T19:00:40.641Z,20.74
2023-07-18T19:05:46.535Z,20.68
2023-07-18T19:11:05.166Z,20.60
2023-07-18T19:16:21.628Z,20.52
2023-07-18T19:21:35.565Z,20.41
2023-07-18T19:26:41.254Z,20.30
2023-07-18T19:31:47.234Z,20.17
2023-07-18T19:36:53.881Z,20.04
2023-07-18T19:41:59.742Z,19.92
2023-07-18T19:47:05.901Z,19.79
2023-07-18T19:52:12.279Z,19.66
2023-07-18T19:57:18.037Z,19.51
2023-07-18T20:02:23.900Z,19.36
2023-07-18T20:07:30.193Z,19.21
2023-07-18T20:12:35.952Z,19.08
2023-07-18T20:17:42.203Z,18.93
2023-07-18T20:22:47.961Z,18.78
2023-07-18T20:27:54.290Z,18.64
2023-07-18T20:33:03.524Z,18.50
2023-07-18T20:38:10.509Z,18.36
2023-07-18T20:43:16.679Z,18.22
2023-07-18T20:48:22.226Z,18.08
2023-07-18T20:53:29.009Z,17.94
2023-07-18T20:58:34.754Z,17.79
2023-07-18T21:03:40.503Z,17.65
2023-07-18T21:08:47.511Z,17.50
2023-07-18T21:13:53.137Z,17.36
2023-07-18T21:18:58.744Z,17.22
2023-07-18T21:24:04.943Z,17.09
2023-07-18T21:29:10.583Z,16.95
2023-07-18T21:34:16.140Z,16.82
2023-07-18T21:39:22.115Z,16.70
2023-07-18T21:44:27.926Z,16.57
2023-07-18T21:49:33.574Z,16.45
2023-07-18T21:54:39.354Z,16.35
2023-07-18T21:59:45.357Z,16.24
2023-07-18T22:04:51.156Z,16.13
2023-07-18T22:09:57.525Z,16.03
2023-07-18T22:15:03.524Z,15.92
2023-07-18T22:20:10.211Z,15.82
2023-07-18T22:25:15.779Z,15.71
2023-07-18T22:30:21.350Z,15.60
2023-07-18T22:35:26.862Z,15.49
2023-07-18T22:40:32.735Z,15.39
2023-07-18T22:45:38.373Z,15.30
2023-07-18T22:50:43.805Z,15.19
2023-07-18T22:55:50.531Z,15.10
2023-07-18T23:00:56.383Z,15.01
2023-07-18T23:06:02.274Z,14.92
2023-07-18T23:11:07.657Z,14.83
2023-07-18T23:16:13.400Z,14.76
2023-07-18T23:21:19.554Z,14.69
2023-07-18T23:26:25.615Z,14.61
2023-07-18T23:31:31.220Z,14.53
2023-07-18T23:36:36.901Z,14.47
2023-07-18T23:41:42.893Z,14.39
2023-07-18T23:46:48.657Z,14.33
2023-07-18T23:51:54.577Z,14.26
2023-07-18T23:57:00.380Z,14.18
